Newton, KS

12:31 AM CST on December 18, 2014 (GMT -0600)
Hutchinson Municipal | Change Station
CLOSE
Current Station
Airport
Location: Hutchinson,
Elevation: 1542 ft
Nearby Weather Stations
Active Advisory: Winter Weather Advisory Active Notice: Local Storm Report

Elev 1542 ft 38.07 °N, 97.86 °W | Updated 39 minutes ago

Snow
Snow
29 °F
Feels Like 21 °F
N
8
Wind Variable Wind from East

Today
High -- | Low -- °F
--% Chance of Precip.
Yesterday
High -- | Low -- °F
Precip. -- in
7:40 AM 5:11 PM
Waning Crescent, 16% visible
Pressure 30.19 in
Visibility 1.0 miles
Clouds Mostly Cloudy 600 ft
Overcast 1700 ft
Windchill 21 °F
Dew Point 26 °F
Humidity 89%
Rainfall 0.00 in
Snow Depth Not available.
UV 0 out of 12
Pollen .10 out of 12
Air Quality Not available.
Flu Activity Not available.
METAR KHUT 180552Z AUTO 10007KT 1SM R13/5500VP6000FT -SN BR BKN006 OVC017 M02/M03 A3016 RMK AO2 SLP222 P0000 60000 T10171033 11006 21017 400061039 58002

More Conditions Fewer Conditions

Pressure 30.19 in
Visibility 1.0 miles
Clouds Mostly Cloudy 600 ft
Overcast 1700 ft
Windchill 21 °F
Dew Point 26 °F
Humidity 89%
Rainfall 0.00 in
Snow Depth Not available.
UV 0 out of 12
Pollen .10 out of 12
Air Quality Not available.
Flu Activity Not available.
METAR KHUT 180552Z AUTO 10007KT 1SM R13/5500VP6000FT -SN BR BKN006 OVC017 M02/M03 A3016 RMK AO2 SLP222 P0000 60000 T10171033 11006 21017 400061039 58002

More Conditions Fewer Conditions

10-Day Weather Forecast

Almanac

Astronomy

Dec. 18, 2014 Rise Set
Actual Time
Civil Twilight
Nautical Twilight
Astronomical Twilight
Moon
Length of Visible Light
Length of Day
Tomorrow will be .
, % of the Moon is Illuminated

Today's Extremes

State Highs State Lows

Community

WunderPhotos

Upload Photos

1,778,896 photos uploaded!

WunderBlogs® & News

Nearby

Air Quality

  Air Quality AQ Index Pollutant
Not available.

Snow Depth

Station Depth Elevation

Earthquake Activity

City Distance Mag. Time & Date
Minimum magnitude displayed is 2.5.

Coastal Water Temperatures

Place Temperature

Nearby Weather Stations